createdAt,value
2018-08-28T00:02:22.619Z,3.77
2018-08-28T00:04:52.021Z,3.63
2018-08-28T00:07:21.253Z,3.73
2018-08-28T00:09:50.606Z,3.60
2018-08-28T00:12:20.534Z,4.00
2018-08-28T00:14:49.934Z,3.97
2018-08-28T00:17:19.439Z,3.63
2018-08-28T00:19:48.689Z,3.90
2018-08-28T00:22:18.163Z,3.83
2018-08-28T00:24:47.731Z,3.90
2018-08-28T00:27:17.366Z,3.90
2018-08-28T00:29:46.694Z,4.13
2018-08-28T00:32:16.524Z,3.87
2018-08-28T00:34:46.300Z,3.80
2018-08-28T00:37:15.680Z,4.30
2018-08-28T00:39:45.184Z,4.07
2018-08-28T00:42:14.690Z,4.40
2018-08-28T00:44:44.194Z,4.50
2018-08-28T00:47:13.595Z,5.20
2018-08-28T00:49:42.996Z,5.40
2018-08-28T00:52:12.407Z,5.87
2018-08-28T00:54:41.903Z,5.57
2018-08-28T00:57:11.307Z,5.27
2018-08-28T00:59:40.629Z,5.80
2018-08-28T01:02:10.009Z,5.40
2018-08-28T01:04:39.510Z,5.53
2018-08-28T01:07:09.039Z,5.73
2018-08-28T01:09:38.520Z,6.10
2018-08-28T01:12:07.847Z,5.80
2018-08-28T01:14:37.359Z,5.57
2018-08-28T01:17:06.830Z,5.90
2018-08-28T01:19:36.355Z,6.20
2018-08-28T01:22:06.144Z,6.70
2018-08-28T01:24:35.668Z,7.07
2018-08-28T01:27:05.152Z,6.83
2018-08-28T01:29:34.556Z,7.13
2018-08-28T01:32:04.163Z,7.17
2018-08-28T01:34:33.636Z,7.10
2018-08-28T01:37:03.088Z,7.17
2018-08-28T01:39:32.474Z,7.63
2018-08-28T01:42:01.973Z,7.67
2018-08-28T01:44:31.477Z,7.97
2018-08-28T01:47:01.141Z,7.97
2018-08-28T01:49:30.408Z,7.70
2018-08-28T01:51:59.689Z,7.50
2018-08-28T01:54:29.088Z,7.57
2018-08-28T01:56:58.557Z,7.60
2018-08-28T01:59:27.993Z,7.27
2018-08-28T02:01:57.496Z,7.40
2018-08-28T02:04:26.751Z,7.50
2018-08-28T02:06:56.097Z,7.47
2018-08-28T02:09:25.503Z,8.03
2018-08-28T02:11:54.763Z,7.53
2018-08-28T02:14:24.199Z,7.03
2018-08-28T02:16:53.601Z,7.13
2018-08-28T02:19:22.871Z,7.83
2018-08-28T02:21:52.102Z,7.67
2018-08-28T02:24:21.498Z,7.30
2018-08-28T02:26:51.079Z,7.77
2018-08-28T02:29:20.508Z,8.40
2018-08-28T02:31:49.910Z,7.47
2018-08-28T02:34:19.312Z,8.10
2018-08-28T02:36:48.919Z,7.57
2018-08-28T02:39:18.223Z,7.77
2018-08-28T02:41:47.462Z,8.10
2018-08-28T02:44:17.022Z,7.57
2018-08-28T02:46:46.224Z,7.40
2018-08-28T02:49:15.518Z,8.00
2018-08-28T02:51:44.817Z,7.73
2018-08-28T02:54:14.426Z,7.97
2018-08-28T02:56:43.728Z,7.93
2018-08-28T02:59:13.231Z,8.00
2018-08-28T03:01:42.411Z,8.30
2018-08-28T03:04:11.828Z,7.50
2018-08-28T03:06:41.290Z,7.30
2018-08-28T03:09:10.511Z,8.37
2018-08-28T03:11:39.967Z,8.23
2018-08-28T03:14:09.512Z,8.10
2018-08-28T03:16:39.247Z,9.07
2018-08-28T03:19:08.982Z,9.10
2018-08-28T03:21:38.471Z,8.80
2018-08-28T03:24:07.851Z,9.90
2018-08-28T03:26:37.367Z,10.07
2018-08-28T03:29:06.800Z,9.50
2018-08-28T03:31:36.274Z,9.60
2018-08-28T03:34:05.886Z,9.50
2018-08-28T03:36:35.486Z,9.30
2018-08-28T03:39:05.525Z,9.00
2018-08-28T03:41:35.212Z,8.70
2018-08-28T03:44:04.716Z,9.40
2018-08-28T03:46:34.323Z,9.07
2018-08-28T03:49:04.040Z,9.27
2018-08-28T03:51:33.644Z,9.20
2018-08-28T03:54:04.160Z,8.83
2018-08-28T03:56:35.615Z,8.97
2018-08-28T03:59:05.018Z,9.17
2018-08-28T04:01:34.421Z,8.23
2018-08-28T04:04:03.760Z,9.03
2018-08-28T04:06:33.327Z,8.37
2018-08-28T04:09:03.140Z,9.30
2018-08-28T04:11:32.643Z,8.53
2018-08-28T04:14:02.008Z,9.10
2018-08-28T04:16:31.516Z,8.73
2018-08-28T04:19:00.854Z,8.90
2018-08-28T04:21:33.324Z,9.00
2018-08-28T04:24:02.624Z,8.43
2018-08-28T04:26:32.027Z,8.73
2018-08-28T04:29:01.431Z,8.70
2018-08-28T04:31:30.933Z,7.83
2018-08-28T04:34:00.340Z,8.90
2018-08-28T04:36:29.551Z,8.90
2018-08-28T04:38:58.887Z,8.50
2018-08-28T04:41:28.339Z,8.80
2018-08-28T04:43:57.896Z,8.50
2018-08-28T04:46:27.348Z,8.27
2018-08-28T04:48:56.606Z,8.67
2018-08-28T04:51:25.945Z,8.60
2018-08-28T04:53:55.349Z,8.67
2018-08-28T04:56:24.679Z,8.40
2018-08-28T04:58:54.055Z,8.77
2018-08-28T05:01:23.654Z,8.67
2018-08-28T05:03:53.054Z,8.37
2018-08-28T05:06:23.586Z,8.23
2018-08-28T05:08:53.024Z,9.23
2018-08-28T05:11:22.392Z,8.23
2018-08-28T05:13:53.891Z,8.30
2018-08-28T05:16:23.343Z,8.50
2018-08-28T05:18:52.747Z,9.17
2018-08-28T05:21:22.148Z,8.90
2018-08-28T05:23:52.630Z,8.80
2018-08-28T05:26:21.897Z,8.83
2018-08-28T05:28:51.371Z,8.40
2018-08-28T05:31:20.982Z,9.23
2018-08-28T05:33:50.397Z,9.03
2018-08-28T05:36:20.706Z,9.30
2018-08-28T05:38:50.114Z,9.27
2018-08-28T05:41:19.718Z,9.37
2018-08-28T05:43:49.119Z,9.13
2018-08-28T05:46:18.876Z,9.00
2018-08-28T05:48:48.230Z,8.73
2018-08-28T05:51:17.631Z,8.87
2018-08-28T05:53:47.033Z,8.60
2018-08-28T05:56:16.590Z,9.00
2018-08-28T05:58:46.006Z,9.47
2018-08-28T06:01:15.447Z,9.53
2018-08-28T06:03:44.845Z,9.87
2018-08-28T06:06:14.145Z,9.60
2018-08-28T06:08:43.551Z,9.70
2018-08-28T06:11:13.371Z,9.87
2018-08-28T06:13:42.610Z,9.80
2018-08-28T06:16:11.833Z,10.37
2018-08-28T06:18:41.075Z,10.47
2018-08-28T06:21:10.366Z,10.33
2018-08-28T06:23:39.650Z,9.63
2018-08-28T06:26:08.881Z,9.47
2018-08-28T06:28:38.352Z,9.30
2018-08-28T06:31:07.755Z,9.63
2018-08-28T06:33:43.608Z,9.87
2018-08-28T06:36:13.116Z,10.13
2018-08-28T06:38:42.515Z,9.93
2018-08-28T06:41:11.858Z,10.27
2018-08-28T06:43:47.682Z,10.40
2018-08-28T06:46:17.172Z,10.33
2018-08-28T06:48:46.573Z,10.70
2018-08-28T06:51:15.975Z,10.33
2018-08-28T06:53:45.377Z,11.40
2018-08-28T06:56:14.669Z,10.63
2018-08-28T06:58:44.179Z,10.27
2018-08-28T07:01:13.583Z,11.60
2018-08-28T07:03:43.013Z,11.43
2018-08-28T07:06:12.445Z,11.23
2018-08-28T07:08:41.789Z,10.43
2018-08-28T07:11:11.299Z,10.53
2018-08-28T07:13:40.744Z,9.77
2018-08-28T07:16:10.098Z,9.00
2018-08-28T07:18:39.329Z,9.10
2018-08-28T07:21:08.593Z,9.20
2018-08-28T07:23:37.997Z,9.30
2018-08-28T07:26:07.445Z,8.60
2018-08-28T07:28:36.901Z,9.10
2018-08-28T07:31:06.406Z,8.20
2018-08-28T07:33:35.639Z,7.77
2018-08-28T07:36:04.827Z,7.50
2018-08-28T07:38:34.048Z,5.77
2018-08-28T07:41:03.399Z,5.60
2018-08-28T07:43:32.703Z,6.60
2018-08-28T07:46:02.007Z,7.00
2018-08-28T07:48:31.485Z,5.50
2018-08-28T07:51:00.904Z,5.60
2018-08-28T07:53:30.307Z,7.23
2018-08-28T07:55:59.492Z,6.03
2018-08-28T07:58:28.803Z,6.20
2018-08-28T08:00:58.204Z,7.10
2018-08-28T08:03:27.607Z,6.87
2018-08-28T08:05:57.114Z,5.93
2018-08-28T08:08:26.514Z,5.70
2018-08-28T08:10:56.018Z,6.10
2018-08-28T08:13:25.518Z,6.53
2018-08-28T08:15:54.978Z,6.27
2018-08-28T08:18:24.428Z,5.73
2018-08-28T08:20:53.838Z,3.60
2018-08-28T08:23:23.176Z,3.70
2018-08-28T08:25:52.471Z,3.70
2018-08-28T08:28:21.966Z,3.80
2018-08-28T08:30:51.542Z,4.27
2018-08-28T08:33:20.941Z,3.70
2018-08-28T08:35:50.347Z,4.00
2018-08-28T08:38:19.825Z,4.20
2018-08-28T08:40:49.454Z,3.75
2018-08-28T08:43:18.856Z,3.87
2018-08-28T08:45:48.426Z,3.37
2018-08-28T08:48:17.866Z,4.10
2018-08-28T08:50:47.457Z,4.30
2018-08-28T08:53:16.637Z,3.60
2018-08-28T08:55:46.070Z,3.72
2018-08-28T08:58:15.474Z,3.70
2018-08-28T09:00:44.671Z,3.80
2018-08-28T09:03:13.941Z,3.70
2018-08-28T09:05:43.460Z,3.37
2018-08-28T09:08:12.877Z,3.85
2018-08-28T09:10:42.380Z,3.60
2018-08-28T09:13:12.459Z,3.60
2018-08-28T09:15:41.654Z,3.83
2018-08-28T09:18:10.904Z,3.60
2018-08-28T09:20:40.294Z,3.90
2018-08-28T09:23:09.800Z,3.77
2018-08-28T09:25:39.201Z,3.58
2018-08-28T09:28:08.656Z,3.37
2018-08-28T09:30:38.112Z,3.50
2018-08-28T09:33:07.509Z,3.12
2018-08-28T09:35:36.913Z,3.40
2018-08-28T09:38:06.170Z,4.20
2018-08-28T09:40:35.410Z,3.27
2018-08-28T09:43:04.815Z,3.70
2018-08-28T09:45:34.220Z,4.10
2018-08-28T09:48:03.787Z,3.72
2018-08-28T09:50:33.064Z,2.95
2018-08-28T09:53:02.422Z,4.45
2018-08-28T09:55:31.923Z,3.50
2018-08-28T09:58:01.148Z,3.62
2018-08-28T10:00:30.511Z,3.45
2018-08-28T10:02:59.924Z,3.35
2018-08-28T10:05:29.223Z,3.30
2018-08-28T10:07:58.619Z,3.08
2018-08-28T10:10:27.927Z,3.35
2018-08-28T10:12:57.140Z,3.60
2018-08-28T10:15:26.368Z,3.30
2018-08-28T10:17:55.720Z,3.55
2018-08-28T10:20:24.954Z,3.60
2018-08-28T10:22:54.393Z,3.37
2018-08-28T10:25:23.915Z,3.40
2018-08-28T10:27:53.227Z,3.10
2018-08-28T10:30:22.740Z,3.42
2018-08-28T10:32:51.937Z,3.17
2018-08-28T10:35:21.433Z,3.10
2018-08-28T10:37:50.851Z,3.65
2018-08-28T10:40:20.678Z,3.42
2018-08-28T10:42:50.155Z,3.60
2018-08-28T10:45:19.655Z,3.77
2018-08-28T10:47:48.851Z,3.55
2018-08-28T10:50:18.254Z,3.47
2018-08-28T10:52:47.527Z,3.42
2018-08-28T10:55:16.786Z,3.60
2018-08-28T10:57:46.256Z,4.17
2018-08-28T11:00:15.494Z,3.60
2018-08-28T11:02:45.039Z,4.33
2018-08-28T11:05:14.463Z,4.17
2018-08-28T11:07:43.866Z,3.75
2018-08-28T11:10:13.167Z,4.20
2018-08-28T11:12:42.563Z,3.92
2018-08-28T11:15:11.930Z,4.40
2018-08-28T11:17:41.367Z,4.22
2018-08-28T11:20:10.874Z,4.70
2018-08-28T11:22:40.175Z,4.17
2018-08-28T11:25:10.064Z,4.40
2018-08-28T11:27:39.698Z,4.22
2018-08-28T11:30:09.203Z,4.05
2018-08-28T11:32:38.841Z,4.42
2018-08-28T11:35:08.310Z,4.75
2018-08-28T11:37:37.813Z,4.30
2018-08-28T11:40:07.420Z,4.10
2018-08-28T11:42:36.824Z,4.60
2018-08-28T11:45:06.537Z,4.42
2018-08-28T11:47:36.016Z,4.70
2018-08-28T11:50:05.540Z,3.90
2018-08-28T11:52:34.848Z,4.10
2018-08-28T11:55:04.138Z,4.05
2018-08-28T11:57:33.360Z,4.00
2018-08-28T12:00:02.841Z,4.08
2018-08-28T12:02:32.145Z,3.77
2018-08-28T12:05:01.456Z,3.83
2018-08-28T12:07:30.670Z,3.98
2018-08-28T12:10:00.143Z,3.90
2018-08-28T12:12:29.748Z,3.62
2018-08-28T12:14:59.024Z,4.08
2018-08-28T12:17:28.283Z,3.95
2018-08-28T12:19:57.751Z,4.25
2018-08-28T12:22:27.048Z,4.33
2018-08-28T12:24:56.450Z,4.53
2018-08-28T12:27:25.679Z,4.17
2018-08-28T12:29:55.358Z,4.03
2018-08-28T12:32:24.890Z,4.00
2018-08-28T12:34:54.120Z,4.33
2018-08-28T12:37:23.406Z,3.90
2018-08-28T12:39:52.763Z,3.83
2018-08-28T12:42:22.367Z,4.28
2018-08-28T12:44:51.795Z,4.20
2018-08-28T12:47:21.006Z,4.00
2018-08-28T12:49:50.231Z,4.67
2018-08-28T12:52:19.564Z,4.03
2018-08-28T12:54:48.907Z,4.03
2018-08-28T12:57:18.575Z,4.25
2018-08-28T12:59:48.080Z,4.12
2018-08-28T13:02:17.410Z,3.90
2018-08-28T13:04:46.816Z,4.20
2018-08-28T13:07:16.256Z,4.12
2018-08-28T13:09:45.455Z,4.33
2018-08-28T13:12:14.745Z,4.17
2018-08-28T13:14:44.316Z,4.40
2018-08-28T13:17:13.427Z,4.72
2018-08-28T13:19:42.886Z,4.55
2018-08-28T13:22:12.595Z,4.50
2018-08-28T13:24:41.997Z,4.10
2018-08-28T13:27:11.402Z,4.22
2018-08-28T13:29:40.922Z,4.35
2018-08-28T13:32:10.315Z,4.10
2018-08-28T13:34:40.842Z,4.28
2018-08-28T13:37:10.235Z,4.25
2018-08-28T13:39:39.739Z,4.10
2018-08-28T13:42:09.028Z,4.40
2018-08-28T13:44:38.447Z,4.42
2018-08-28T13:47:07.899Z,4.10
2018-08-28T13:49:37.247Z,3.92
2018-08-28T13:52:06.650Z,4.10
2018-08-28T13:54:36.156Z,4.45
2018-08-28T13:57:05.659Z,4.30
2018-08-28T13:59:35.163Z,4.47
2018-08-28T14:02:04.730Z,3.95
2018-08-28T14:04:34.320Z,4.40
2018-08-28T14:07:03.675Z,4.30
2018-08-28T14:09:33.079Z,3.98
2018-08-28T14:12:02.480Z,4.10
2018-08-28T14:14:31.883Z,4.40
2018-08-28T14:17:01.389Z,4.35
2018-08-28T14:19:30.672Z,4.35
2018-08-28T14:22:00.092Z,4.22
2018-08-28T14:24:29.389Z,4.12
2018-08-28T14:26:58.734Z,3.83
2018-08-28T14:29:28.191Z,4.20
2018-08-28T14:31:57.591Z,4.33
2018-08-28T14:34:26.996Z,4.40
2018-08-28T14:36:56.286Z,4.47
2018-08-28T14:39:25.798Z,4.55
2018-08-28T14:41:55.046Z,4.45
2018-08-28T14:44:24.410Z,4.22
2018-08-28T14:46:58.509Z,4.60
2018-08-28T14:49:27.911Z,4.90
2018-08-28T14:51:57.414Z,4.50
2018-08-28T14:54:26.820Z,4.62
2018-08-28T14:56:56.117Z,4.87
2018-08-28T14:59:25.422Z,4.42
2018-08-28T15:01:55.023Z,4.40
2018-08-28T15:04:24.324Z,4.42
2018-08-28T15:06:53.842Z,4.25
2018-08-28T15:09:23.231Z,4.00
2018-08-28T15:11:52.627Z,4.28
2018-08-28T15:14:22.042Z,3.65
2018-08-28T15:16:51.333Z,3.83
2018-08-28T15:19:20.579Z,4.35
2018-08-28T15:21:49.933Z,4.25
2018-08-28T15:24:19.335Z,4.15
2018-08-28T15:26:49.559Z,4.20
2018-08-28T15:29:19.061Z,4.45
2018-08-28T15:31:48.299Z,4.40
2018-08-28T15:34:17.730Z,4.28
2018-08-28T15:36:47.164Z,3.90
2018-08-28T15:39:16.566Z,4.35
2018-08-28T15:41:45.865Z,3.83
2018-08-28T15:44:15.131Z,4.10
2018-08-28T15:46:44.466Z,4.12
2018-08-28T15:49:13.866Z,4.28
2018-08-28T15:51:43.407Z,4.22
2018-08-28T15:54:13.286Z,4.25
2018-08-28T15:56:42.688Z,4.30
2018-08-28T15:59:12.091Z,4.50
2018-08-28T16:01:41.493Z,4.37
2018-08-28T16:04:15.158Z,4.35
2018-08-28T16:06:45.449Z,4.35
2018-08-28T16:09:15.034Z,4.22
2018-08-28T16:11:44.323Z,4.17
2018-08-28T16:14:14.442Z,4.00
2018-08-28T16:16:44.530Z,4.60
2018-08-28T16:19:13.863Z,4.80
2018-08-28T16:21:46.348Z,4.40
2018-08-28T16:24:17.801Z,4.42
2018-08-28T16:26:47.898Z,4.70
2018-08-28T16:29:17.277Z,5.05
2018-08-28T16:31:46.603Z,4.47
2018-08-28T16:34:16.522Z,4.25
2018-08-28T16:36:45.921Z,4.35
2018-08-28T16:39:15.532Z,3.98
2018-08-28T16:41:45.113Z,4.45
2018-08-28T16:44:14.638Z,4.50
2018-08-28T16:46:44.059Z,4.65
2018-08-28T16:49:13.445Z,4.62
2018-08-28T16:51:42.951Z,4.35
2018-08-28T16:54:12.350Z,3.90
2018-08-28T16:56:41.655Z,4.35
2018-08-28T16:59:10.998Z,4.42
2018-08-28T17:01:40.433Z,4.50
2018-08-28T17:04:09.856Z,4.10
2018-08-28T17:06:39.362Z,4.42
2018-08-28T17:09:08.866Z,4.15
2018-08-28T17:11:38.275Z,4.12
2018-08-28T17:14:07.775Z,4.40
2018-08-28T17:16:37.173Z,4.10
2018-08-28T17:19:06.703Z,3.95
2018-08-28T17:21:36.181Z,4.42
2018-08-28T17:24:05.629Z,4.42
2018-08-28T17:26:35.041Z,4.10
2018-08-28T17:29:04.591Z,4.50
2018-08-28T17:31:33.892Z,4.55
2018-08-28T17:34:03.397Z,4.60
2018-08-28T17:36:32.593Z,4.65
2018-08-28T17:39:02.008Z,4.53
2018-08-28T17:41:31.501Z,4.60
2018-08-28T17:44:00.901Z,4.47
2018-08-28T17:46:30.409Z,3.90
2018-08-28T17:48:59.924Z,4.20
2018-08-28T17:51:29.314Z,4.40
2018-08-28T17:53:58.716Z,4.55
2018-08-28T17:56:28.119Z,4.67
2018-08-28T17:58:57.724Z,4.58
2018-08-28T18:01:27.209Z,4.40
2018-08-28T18:03:56.684Z,4.10
2018-08-28T18:06:26.034Z,4.35
2018-08-28T18:08:55.436Z,4.55
2018-08-28T18:11:24.839Z,4.53
2018-08-28T18:13:54.343Z,3.95
2018-08-28T18:16:23.803Z,4.47
2018-08-28T18:18:53.216Z,4.17
2018-08-28T18:21:22.445Z,4.28
2018-08-28T18:23:51.849Z,4.20
2018-08-28T18:26:21.154Z,3.92
2018-08-28T18:28:50.562Z,4.33
2018-08-28T18:31:20.770Z,4.10
2018-08-28T18:33:50.262Z,4.00
2018-08-28T18:36:22.158Z,3.95
2018-08-28T18:38:51.538Z,4.40
2018-08-28T18:41:21.009Z,4.33
2018-08-28T18:43:50.663Z,4.67
2018-08-28T18:46:19.947Z,4.62
2018-08-28T18:48:49.350Z,4.30
2018-08-28T18:51:18.753Z,4.10
2018-08-28T18:53:48.010Z,4.23
2018-08-28T18:56:17.417Z,4.30
2018-08-28T18:58:46.857Z,3.90
2018-08-28T19:01:16.319Z,4.27
2018-08-28T19:03:45.763Z,4.10
2018-08-28T19:06:15.062Z,4.30
2018-08-28T19:08:53.141Z,4.53
2018-08-28T19:11:34.145Z,4.47
2018-08-28T19:14:03.648Z,4.57
2018-08-28T19:16:33.150Z,4.07
2018-08-28T19:19:02.558Z,4.03
2018-08-28T19:21:32.054Z,4.00
2018-08-28T19:24:01.563Z,4.20
2018-08-28T19:26:30.883Z,4.37
2018-08-28T19:29:00.270Z,4.30
2018-08-28T19:31:29.667Z,4.40
2018-08-28T19:33:59.170Z,4.30
2018-08-28T19:36:28.676Z,4.30
2018-08-28T19:38:58.078Z,4.90
2018-08-28T19:41:27.477Z,4.23
2018-08-28T19:43:56.879Z,4.53
2018-08-28T19:46:26.285Z,4.17
2018-08-28T19:48:55.684Z,4.27
2018-08-28T19:51:25.319Z,4.77
2018-08-28T19:53:55.002Z,4.47
2018-08-28T19:56:31.060Z,4.60
2018-08-28T19:59:00.567Z,4.30
2018-08-28T20:01:29.966Z,4.33
2018-08-28T20:03:59.415Z,4.40
2018-08-28T20:06:28.870Z,5.13
2018-08-28T20:08:58.272Z,4.60
2018-08-28T20:11:27.777Z,4.60
2018-08-28T20:13:57.283Z,4.67
2018-08-28T20:16:26.685Z,4.70
2018-08-28T20:18:56.087Z,4.50
2018-08-28T20:21:25.489Z,4.90
2018-08-28T20:23:54.792Z,4.60
2018-08-28T20:26:24.135Z,4.63
2018-08-28T20:28:53.565Z,4.70
2018-08-28T20:31:23.058Z,4.97
2018-08-28T20:33:52.348Z,4.50
2018-08-28T20:36:21.797Z,4.57
2018-08-28T20:38:51.197Z,4.40
2018-08-28T20:41:20.415Z,4.43
2018-08-28T20:43:49.798Z,5.10
2018-08-28T20:46:19.090Z,4.80
2018-08-28T20:48:48.371Z,5.43
2018-08-28T20:51:17.696Z,4.80
2018-08-28T20:53:47.190Z,5.17
2018-08-28T20:56:16.421Z,5.00
2018-08-28T20:58:45.961Z,4.83
2018-08-28T21:01:15.303Z,4.80
2018-08-28T21:03:44.604Z,4.80
2018-08-28T21:06:13.961Z,4.80
2018-08-28T21:08:43.409Z,5.07
2018-08-28T21:11:12.972Z,5.37
2018-08-28T21:13:42.725Z,5.27
2018-08-28T21:16:12.052Z,5.07
2018-08-28T21:18:41.428Z,5.50
2018-08-28T21:21:11.083Z,5.50
2018-08-28T21:23:40.538Z,5.47
2018-08-28T21:26:10.251Z,5.90
2018-08-28T21:28:39.647Z,5.43
2018-08-28T21:31:09.153Z,5.60
2018-08-28T21:33:38.375Z,5.73
2018-08-28T21:36:07.751Z,5.70
2018-08-28T21:38:37.255Z,5.60
2018-08-28T21:41:06.555Z,5.67
2018-08-28T21:43:36.470Z,5.67
2018-08-28T21:46:05.875Z,5.60
2018-08-28T21:48:35.212Z,5.67
2018-08-28T21:51:04.678Z,5.43
2018-08-28T21:53:33.942Z,5.80
2018-08-28T21:56:03.581Z,5.57
2018-08-28T21:58:32.983Z,5.90
2018-08-28T22:01:07.608Z,5.77
2018-08-28T22:03:38.555Z,5.63
2018-08-28T22:06:12.228Z,6.20
2018-08-28T22:08:41.651Z,5.60
2018-08-28T22:11:11.052Z,5.93
2018-08-28T22:13:40.761Z,6.27
2018-08-28T22:16:10.164Z,6.00
2018-08-28T22:18:39.874Z,5.70
2018-08-28T22:21:09.091Z,5.17
2018-08-28T22:23:38.474Z,5.80
2018-08-28T22:26:07.720Z,5.70
2018-08-28T22:28:37.068Z,5.73
2018-08-28T22:31:06.716Z,5.97
2018-08-28T22:33:35.931Z,6.40
2018-08-28T22:36:05.220Z,5.63
2018-08-28T22:38:34.580Z,6.30
2018-08-28T22:41:03.835Z,6.30
2018-08-28T22:43:33.095Z,5.67
2018-08-28T22:46:02.425Z,6.00
2018-08-28T22:48:31.700Z,5.80
2018-08-28T22:51:01.078Z,5.77
2018-08-28T22:53:30.380Z,6.10
2018-08-28T22:55:59.885Z,6.60
2018-08-28T22:58:29.282Z,5.90
2018-08-28T23:00:58.684Z,6.30
2018-08-28T23:03:28.088Z,6.40
2018-08-28T23:05:57.373Z,6.13
2018-08-28T23:08:33.546Z,6.13
2018-08-28T23:11:02.947Z,6.07
2018-08-28T23:13:32.183Z,6.47
2018-08-28T23:16:01.429Z,6.73
2018-08-28T23:18:30.767Z,6.37
2018-08-28T23:21:00.252Z,7.00
2018-08-28T23:23:29.504Z,6.60
2018-08-28T23:25:58.952Z,6.80
2018-08-28T23:28:28.191Z,6.80
2018-08-28T23:30:57.549Z,6.10
2018-08-28T23:33:27.260Z,6.67
2018-08-28T23:35:56.660Z,6.33
2018-08-28T23:38:25.903Z,6.50
2018-08-28T23:40:55.123Z,7.10
2018-08-28T23:43:24.560Z,6.53
2018-08-28T23:45:53.959Z,7.13
2018-08-28T23:48:23.568Z,7.17
2018-08-28T23:50:52.973Z,7.57
2018-08-28T23:53:22.272Z,7.00
2018-08-28T23:55:51.673Z,6.83
2018-08-28T23:58:20.938Z,7.60
